Time;durP1;ratioP1;P1;durP2;ratioP2;P2;SDS_P1;SDS_P2;PMS_P1;PMS_P2;Temp;Humidity;BMP_temperature;BMP_pressure;BME280_temperature;BME280_humidity;BME280_pressure;Samples;Min_cycle;Max_cycle;Signal;HPM_P1;HPM_P2
2022/11/16 00:01:27;;;;;;;29.10;14.10;;;;;;;;;;106646;1310;22077;-80
2022/11/16 00:03:55;;;;;;;33.40;15.40;;;;;;;;;;106588;1307;22046;-80
2022/11/16 00:06:22;;;;;;;33.50;16.70;;;;;;;;;;106622;1304;21933;-80
2022/11/16 00:11:37;;;;;;;36.90;15.20;;;;;;;;;;106425;1312;22090;-80
2022/11/16 00:14:05;;;;;;;34.20;15.60;;;;;;;;;;106425;1312;22073;-80
2022/11/16 00:16:32;;;;;;;33.80;15.40;;;;;;;;;;106629;1305;22058;-80
2022/11/16 00:19:02;;;;;;;31.40;15.00;;;;;;;;;;106316;1312;22144;-79
2022/11/16 00:21:30;;;;;;;30.30;14.30;;;;;;;;;;106502;1312;22060;-79
2022/11/16 00:23:57;;;;;;;30.80;13.90;;;;;;;;;;106492;1312;22388;-80
2022/11/16 00:26:24;;;;;;;31.20;14.80;;;;;;;;;;106458;1307;22024;-80
2022/11/16 00:28:52;;;;;;;33.80;15.50;;;;;;;;;;106459;1310;22428;-79
2022/11/16 00:31:19;;;;;;;33.80;14.10;;;;;;;;;;106762;1303;22048;-79
2022/11/16 00:33:48;;;;;;;31.20;15.70;;;;;;;;;;106464;1312;22036;-80
2022/11/16 00:36:15;;;;;;;35.80;15.90;;;;;;;;;;106582;1308;22044;-80
2022/11/16 00:38:43;;;;;;;33.70;16.30;;;;;;;;;;106283;1313;22050;-79
2022/11/16 00:41:12;;;;;;;33.90;14.10;;;;;;;;;;106471;1312;22073;-79
2022/11/16 00:43:41;;;;;;;34.10;15.40;;;;;;;;;;106322;1312;22183;-79
2022/11/16 00:46:08;;;;;;;38.20;18.40;;;;;;;;;;106327;1312;22112;-80
2022/11/16 00:48:36;;;;;;;45.80;21.30;;;;;;;;;;106518;1312;22160;-80
2022/11/16 00:51:04;;;;;;;43.40;20.10;;;;;;;;;;106508;1312;22115;-80
2022/11/16 00:53:33;;;;;;;43.70;20.90;;;;;;;;;;106500;1308;22059;-80
2022/11/16 00:56:00;;;;;;;48.40;22.60;;;;;;;;;;106449;1312;22694;-80
2022/11/16 00:58:28;;;;;;;56.30;24.80;;;;;;;;;;106357;1311;22105;-80
2022/11/16 01:01:04;;;;;;;53.10;26.40;;;;;;;;;;106393;1312;22747;-80
2022/11/16 01:03:32;;;;;;;53.90;25.90;;;;;;;;;;106632;1303;21635;-80
2022/11/16 01:06:00;;;;;;;56.20;27.70;;;;;;;;;;106624;1313;22274;-80
2022/11/16 01:08:30;;;;;;;56.40;27.50;;;;;;;;;;106578;1312;22088;-80
2022/11/16 01:12:07;;;;;;;61.90;28.50;;;;;;;;;;106544;1313;22668;-80
2022/11/16 01:13:49;;;;;;;68.20;32.40;;;;;;;;;;106600;1312;22048;-80
2022/11/16 01:16:19;;;;;;;68.90;31.30;;;;;;;;;;106613;1312;22068;-80
2022/11/16 01:18:50;;;;;;;68.00;33.00;;;;;;;;;;106568;1311;22061;-80
2022/11/16 01:21:19;;;;;;;63.50;29.80;;;;;;;;;;106633;1310;22055;-80
2022/11/16 01:23:48;;;;;;;66.30;30.60;;;;;;;;;;106642;1308;22795;-80
2022/11/16 01:26:17;;;;;;;69.80;31.90;;;;;;;;;;106474;1310;21983;-80
2022/11/16 01:28:46;;;;;;;67.30;30.30;;;;;;;;;;106611;1310;22069;-80
2022/11/16 01:31:15;;;;;;;70.40;30.10;;;;;;;;;;106309;1312;22107;-80
2022/11/16 01:33:44;;;;;;;69.30;32.50;;;;;;;;;;106373;1313;22113;-79
2022/11/16 01:36:22;;;;;;;69.90;31.50;;;;;;;;;;106593;1304;22091;-80
2022/11/16 01:38:51;;;;;;;68.80;32.30;;;;;;;;;;106315;1313;22051;-80
2022/11/16 01:41:24;;;;;;;68.30;32.90;;;;;;;;;;106374;1306;22238;-80
2022/11/16 01:44:07;;;;;;;65.40;30.30;;;;;;;;;;106366;1313;22579;-80
2022/11/16 01:46:42;;;;;;;62.70;27.40;;;;;;;;;;106323;1314;22055;-80
2022/11/16 01:49:16;;;;;;;63.60;29.00;;;;;;;;;;106342;1312;22113;-80
2022/11/16 01:51:47;;;;;;;61.30;29.20;;;;;;;;;;106335;1307;22216;-79
2022/11/16 01:54:17;;;;;;;63.80;31.30;;;;;;;;;;106569;1306;22124;-79
2022/11/16 01:57:00;;;;;;;61.30;29.20;;;;;;;;;;106581;1312;22048;-79
2022/11/16 01:59:37;;;;;;;62.20;30.20;;;;;;;;;;106583;1312;22697;-79
2022/11/16 02:02:08;;;;;;;61.30;29.80;;;;;;;;;;106512;1310;22837;-80
2022/11/16 02:04:37;;;;;;;62.40;30.70;;;;;;;;;;106670;1310;22081;-80
2022/11/16 02:07:12;;;;;;;61.20;29.20;;;;;;;;;;106660;1310;22066;-80
2022/11/16 02:15:46;;;;;;;60.60;29.40;;;;;;;;;;100385;1341;545447;-82
2022/11/16 02:18:30;;;;;;;60.90;29.20;;;;;;;;;;102472;1317;22601;-87
2022/11/16 02:21:16;;;;;;;60.20;29.90;;;;;;;;;;102440;1319;25337;-84
2022/11/16 02:23:58;;;;;;;63.50;29.50;;;;;;;;;;102535;1314;22491;-82
2022/11/16 02:26:25;;;;;;;60.60;30.10;;;;;;;;;;102519;1319;24309;-84
2022/11/16 02:29:12;;;;;;;72.30;31.60;;;;;;;;;;102344;1310;1348466;-81
2022/11/16 02:31:41;;;;;;;58.50;27.40;;;;;;;;;;103502;1307;22582;-82
2022/11/16 02:34:10;;;;;;;65.50;31.10;;;;;;;;;;103328;1308;22471;-85
2022/11/16 02:36:38;;;;;;;67.40;30.90;;;;;;;;;;103416;1302;25347;-80
2022/11/16 02:39:15;;;;;;;69.30;32.40;;;;;;;;;;103455;1307;24725;-84
2022/11/16 02:41:44;;;;;;;66.90;32.20;;;;;;;;;;103367;1307;24314;-80
2022/11/16 02:44:13;;;;;;;67.00;32.60;;;;;;;;;;103490;1307;25284;-81
2022/11/16 02:46:42;;;;;;;65.10;31.80;;;;;;;;;;103379;1307;25675;-82
2022/11/16 02:49:13;;;;;;;67.00;31.60;;;;;;;;;;103369;1308;22503;-84
2022/11/16 02:51:41;;;;;;;67.10;31.70;;;;;;;;;;103410;1310;25382;-80
2022/11/16 02:54:14;;;;;;;63.50;31.60;;;;;;;;;;103255;1310;25251;-80
2022/11/16 02:56:50;;;;;;;64.10;30.30;;;;;;;;;;103305;1307;22480;-81
2022/11/16 02:59:18;;;;;;;63.80;30.30;;;;;;;;;;103606;1307;23883;-85
2022/11/16 03:01:53;;;;;;;69.80;32.90;;;;;;;;;;103370;1307;24039;-84
2022/11/16 03:04:42;;;;;;;70.00;33.30;;;;;;;;;;103253;1307;24331;-81
2022/11/16 03:07:11;;;;;;;61.80;29.30;;;;;;;;;;103209;1307;25267;-84
2022/11/16 03:09:39;;;;;;;70.30;31.80;;;;;;;;;;103169;1311;22585;-84
2022/11/16 03:12:10;;;;;;;63.60;30.70;;;;;;;;;;103351;1303;22711;-86
2022/11/16 03:14:41;;;;;;;61.90;31.30;;;;;;;;;;103518;1295;25258;-85
2022/11/16 03:17:21;;;;;;;56.70;29.30;;;;;;;;;;103323;1307;25238;-82
2022/11/16 03:19:50;;;;;;;61.30;29.90;;;;;;;;;;103406;1310;22523;-85
2022/11/16 03:22:25;;;;;;;63.40;29.30;;;;;;;;;;103463;1309;24227;-87
2022/11/16 03:24:51;;;;;;;61.10;29.30;;;;;;;;;;103350;1310;22489;-82
2022/11/16 03:27:25;;;;;;;62.30;30.40;;;;;;;;;;103268;1311;24237;-83
2022/11/16 03:29:55;;;;;;;61.10;31.00;;;;;;;;;;103406;1308;23879;-81
2022/11/16 03:32:27;;;;;;;61.10;30.70;;;;;;;;;;103546;1309;25287;-82
2022/11/16 03:35:07;;;;;;;60.70;29.30;;;;;;;;;;103254;1310;24324;-84
2022/11/16 03:37:34;;;;;;;57.20;27.50;;;;;;;;;;103267;1302;24433;-82
2022/11/16 03:40:02;;;;;;;59.70;28.30;;;;;;;;;;103250;1310;26465;-80
2022/11/16 03:42:31;;;;;;;56.20;27.90;;;;;;;;;;103391;1292;25333;-84
2022/11/16 03:44:57;;;;;;;58.50;29.10;;;;;;;;;;103405;1299;22461;-85
2022/11/16 03:47:25;;;;;;;57.50;28.10;;;;;;;;;;103471;1309;24380;-83
2022/11/16 03:49:52;;;;;;;61.10;29.30;;;;;;;;;;103472;1310;25315;-82
2022/11/16 03:52:19;;;;;;;59.70;29.40;;;;;;;;;;103364;1310;25382;-84
2022/11/16 03:54:47;;;;;;;58.60;28.60;;;;;;;;;;103558;1313;22198;-82
2022/11/16 03:57:17;;;;;;;61.80;28.50;;;;;;;;;;103148;1311;24279;-80
2022/11/16 03:59:46;;;;;;;60.00;29.00;;;;;;;;;;103296;1310;23949;-84
2022/11/16 04:02:12;;;;;;;63.70;30.10;;;;;;;;;;103100;1311;22467;-81
2022/11/16 04:24:26;;;;;;;58.10;26.90;;;;;;;;;;103243;1295;22461;-86
2022/11/16 04:29:40;;;;;;;64.00;30.20;;;;;;;;;;103110;1310;22461;-87
2022/11/16 04:37:48;;;;;;;72.10;31.60;;;;;;;;;;103337;1313;22533;-87
2022/11/16 04:40:19;;;;;;;69.40;30.90;;;;;;;;;;103335;1302;24400;-86
2022/11/16 04:42:52;;;;;;;70.10;31.60;;;;;;;;;;103177;1310;23036;-88
2022/11/16 04:48:05;;;;;;;83.20;35.20;;;;;;;;;;103281;1310;25690;-84
2022/11/16 04:50:34;;;;;;;68.60;29.30;;;;;;;;;;103559;1309;25409;-82
2022/11/16 04:53:00;;;;;;;87.80;37.70;;;;;;;;;;103393;1308;22473;-81
2022/11/16 04:55:28;;;;;;;78.50;35.30;;;;;;;;;;103366;1313;24240;-82
2022/11/16 04:57:54;;;;;;;80.10;35.30;;;;;;;;;;103366;1310;22478;-84
2022/11/16 05:00:21;;;;;;;77.10;33.60;;;;;;;;;;103278;1313;24310;-83
2022/11/16 05:02:49;;;;;;;83.30;35.40;;;;;;;;;;103232;1311;24314;-81
2022/11/16 05:05:15;;;;;;;77.40;34.50;;;;;;;;;;103312;1313;25760;-84
2022/11/16 05:07:43;;;;;;;83.30;35.40;;;;;;;;;;103415;1311;24341;-80
2022/11/16 05:10:14;;;;;;;85.10;36.60;;;;;;;;;;103291;1311;23065;-82
2022/11/16 05:12:41;;;;;;;68.30;29.80;;;;;;;;;;103445;1305;23994;-81
2022/11/16 05:15:08;;;;;;;83.90;35.30;;;;;;;;;;103561;1307;22496;-82
2022/11/16 05:17:35;;;;;;;75.80;31.90;;;;;;;;;;103517;1307;22461;-82
2022/11/16 05:22:52;;;;;;;81.30;35.00;;;;;;;;;;103423;1310;22472;-86
2022/11/16 05:25:18;;;;;;;83.80;36.80;;;;;;;;;;103410;1301;22531;-81
2022/11/16 05:27:45;;;;;;;73.30;32.60;;;;;;;;;;103294;1309;25268;-82
2022/11/16 05:30:12;;;;;;;80.70;35.80;;;;;;;;;;103521;1307;24487;-83
2022/11/16 05:32:38;;;;;;;85.30;36.40;;;;;;;;;;103509;1307;22457;-82
2022/11/16 05:35:06;;;;;;;83.40;36.70;;;;;;;;;;103477;1307;23648;-80
2022/11/16 05:37:32;;;;;;;88.90;39.80;;;;;;;;;;103317;1313;24237;-80
2022/11/16 05:39:59;;;;;;;89.20;37.50;;;;;;;;;;103523;1304;22482;-87
2022/11/16 05:42:44;;;;;;;83.70;37.20;;;;;;;;;;103510;1313;25414;-82
2022/11/16 05:45:11;;;;;;;91.20;40.00;;;;;;;;;;103542;1301;25245;-82
2022/11/16 05:47:39;;;;;;;101.50;40.70;;;;;;;;;;103427;1291;24048;-84
2022/11/16 05:50:06;;;;;;;100.10;40.90;;;;;;;;;;103383;1309;22484;-81
2022/11/16 05:52:37;;;;;;;97.60;39.60;;;;;;;;;;103474;1312;25267;-81
2022/11/16 05:55:07;;;;;;;81.40;35.70;;;;;;;;;;103514;1313;22512;-82
2022/11/16 05:57:37;;;;;;;89.10;36.50;;;;;;;;;;103274;1312;22495;-84
2022/11/16 06:00:05;;;;;;;85.20;37.40;;;;;;;;;;103394;1292;25282;-81
2022/11/16 06:02:41;;;;;;;110.90;39.80;;;;;;;;;;103506;1311;25340;-84
2022/11/16 06:05:10;;;;;;;103.90;38.20;;;;;;;;;;103500;1291;22470;-84
2022/11/16 06:07:38;;;;;;;108.80;40.10;;;;;;;;;;103541;1313;24461;-86
2022/11/16 06:10:05;;;;;;;112.10;38.00;;;;;;;;;;103518;1307;22458;-80
2022/11/16 06:12:33;;;;;;;89.40;37.50;;;;;;;;;;103420;1283;25376;-80
2022/11/16 06:14:59;;;;;;;79.60;36.70;;;;;;;;;;103363;1292;25520;-83
2022/11/16 06:17:27;;;;;;;82.60;36.60;;;;;;;;;;103536;1312;25354;-82
2022/11/16 06:19:53;;;;;;;77.80;34.60;;;;;;;;;;103334;1313;24235;-82
2022/11/16 06:22:21;;;;;;;86.90;35.70;;;;;;;;;;103303;1291;25292;-84
2022/11/16 06:24:48;;;;;;;106.30;40.20;;;;;;;;;;103497;1294;25330;-81
2022/11/16 06:27:15;;;;;;;110.10;38.50;;;;;;;;;;103340;1312;21778;-81
2022/11/16 06:29:43;;;;;;;97.50;36.50;;;;;;;;;;103444;1310;25287;-80
2022/11/16 06:32:10;;;;;;;94.60;38.00;;;;;;;;;;103417;1301;24157;-80
2022/11/16 06:34:36;;;;;;;87.30;37.50;;;;;;;;;;103286;1313;23266;-83
2022/11/16 06:37:04;;;;;;;86.30;36.00;;;;;;;;;;103575;1310;24258;-81
2022/11/16 06:39:31;;;;;;;95.70;36.60;;;;;;;;;;103813;1307;24265;-81
2022/11/16 06:41:58;;;;;;;114.30;35.70;;;;;;;;;;103505;1307;22521;-82
2022/11/16 06:44:25;;;;;;;100.80;36.30;;;;;;;;;;103395;1310;25504;-80
2022/11/16 06:46:56;;;;;;;94.80;35.20;;;;;;;;;;103560;1298;22507;-81
2022/11/16 06:49:23;;;;;;;89.70;36.20;;;;;;;;;;103387;1308;24317;-81
2022/11/16 06:51:51;;;;;;;95.80;37.30;;;;;;;;;;103616;1308;24152;-84
2022/11/16 06:54:17;;;;;;;88.90;36.00;;;;;;;;;;103454;1309;22518;-84
2022/11/16 06:56:44;;;;;;;103.10;39.10;;;;;;;;;;103500;1310;24271;-80
2022/11/16 06:59:11;;;;;;;94.60;35.90;;;;;;;;;;103392;1303;22998;-82
2022/11/16 07:01:38;;;;;;;90.60;35.30;;;;;;;;;;103460;1306;24987;-79
2022/11/16 07:04:10;;;;;;;106.50;41.30;;;;;;;;;;103279;1310;22484;-81
2022/11/16 07:06:38;;;;;;;110.20;36.20;;;;;;;;;;103478;1310;22667;-79
2022/11/16 07:09:05;;;;;;;111.50;37.20;;;;;;;;;;103233;1310;24270;-84
2022/11/16 07:11:32;;;;;;;95.00;36.00;;;;;;;;;;103301;1308;22479;-86
2022/11/16 07:13:59;;;;;;;85.80;36.90;;;;;;;;;;103391;1308;25264;-86
2022/11/16 07:16:27;;;;;;;93.50;37.50;;;;;;;;;;103664;1307;24265;-84
2022/11/16 07:18:58;;;;;;;95.10;35.70;;;;;;;;;;103806;1307;25334;-83
2022/11/16 07:21:25;;;;;;;88.20;35.60;;;;;;;;;;103653;1307;25575;-83
2022/11/16 07:23:53;;;;;;;88.00;37.60;;;;;;;;;;103446;1310;24226;-86
2022/11/16 07:26:21;;;;;;;91.40;36.00;;;;;;;;;;103546;1307;25361;-85
2022/11/16 07:28:58;;;;;;;88.80;36.20;;;;;;;;;;103623;1307;22493;-85
2022/11/16 07:31:24;;;;;;;102.60;37.20;;;;;;;;;;103578;1304;22427;-85
2022/11/16 07:34:11;;;;;;;97.60;37.80;;;;;;;;;;103785;1302;22467;-81
2022/11/16 07:36:42;;;;;;;82.60;33.80;;;;;;;;;;103571;1307;22481;-86
2022/11/16 07:39:10;;;;;;;83.70;34.50;;;;;;;;;;103541;1307;25362;-81
2022/11/16 07:41:38;;;;;;;87.20;34.70;;;;;;;;;;103615;1307;22507;-83
2022/11/16 07:44:11;;;;;;;85.00;35.20;;;;;;;;;;103537;1291;25290;-85
2022/11/16 07:46:39;;;;;;;88.30;35.20;;;;;;;;;;103532;1307;24018;-82
2022/11/16 07:49:15;;;;;;;80.50;33.90;;;;;;;;;;103611;1307;23163;-85
2022/11/16 07:51:48;;;;;;;80.30;33.20;;;;;;;;;;103684;1304;24235;-85
2022/11/16 07:54:33;;;;;;;83.80;33.20;;;;;;;;;;103732;1304;24243;-85
2022/11/16 07:57:00;;;;;;;79.30;31.90;;;;;;;;;;103771;1308;24310;-83
2022/11/16 07:59:27;;;;;;;91.80;33.60;;;;;;;;;;103606;1304;24286;-83
2022/11/16 08:01:54;;;;;;;88.00;34.10;;;;;;;;;;103737;1304;22526;-82
2022/11/16 08:04:21;;;;;;;87.90;33.00;;;;;;;;;;103510;1307;25277;-82
2022/11/16 08:06:50;;;;;;;86.00;32.60;;;;;;;;;;103525;1294;22554;-83
2022/11/16 08:09:17;;;;;;;89.30;33.40;;;;;;;;;;103652;1307;25644;-83
2022/11/16 08:11:45;;;;;;;83.20;34.60;;;;;;;;;;103512;1300;22471;-82
2022/11/16 08:14:12;;;;;;;101.60;33.70;;;;;;;;;;103452;1304;24233;-85
2022/11/16 08:16:39;;;;;;;81.80;33.00;;;;;;;;;;103421;1304;25705;-85
2022/11/16 08:19:09;;;;;;;78.20;31.20;;;;;;;;;;103442;1306;24168;-81
2022/11/16 08:21:36;;;;;;;86.40;33.70;;;;;;;;;;103548;1307;24218;-86
2022/11/16 08:24:03;;;;;;;88.60;32.80;;;;;;;;;;103538;1307;22489;-86
2022/11/16 08:26:30;;;;;;;88.90;33.00;;;;;;;;;;103533;1307;22445;-83
2022/11/16 08:29:01;;;;;;;97.20;33.00;;;;;;;;;;103641;1301;22469;-87
2022/11/16 08:31:30;;;;;;;86.70;32.80;;;;;;;;;;103616;1306;22407;-84
2022/11/16 08:34:06;;;;;;;81.30;33.90;;;;;;;;;;103506;1307;22517;-86
2022/11/16 08:36:34;;;;;;;91.60;36.00;;;;;;;;;;103902;1304;23842;-82
2022/11/16 08:39:01;;;;;;;84.90;34.00;;;;;;;;;;103657;1307;24174;-83
2022/11/16 08:41:28;;;;;;;93.00;35.30;;;;;;;;;;103489;1304;23253;-81
2022/11/16 08:43:55;;;;;;;85.10;33.00;;;;;;;;;;103523;1307;25417;-81
2022/11/16 08:46:22;;;;;;;108.30;35.60;;;;;;;;;;103567;1305;22483;-82
2022/11/16 08:48:54;;;;;;;83.50;34.40;;;;;;;;;;103619;1306;23847;-82
2022/11/16 08:51:22;;;;;;;77.80;30.30;;;;;;;;;;103579;1307;25290;-85
2022/11/16 08:53:55;;;;;;;76.20;31.90;;;;;;;;;;103577;1307;22964;-84
2022/11/16 08:56:22;;;;;;;80.20;33.60;;;;;;;;;;103580;1307;22432;-86
2022/11/16 08:58:51;;;;;;;86.60;34.20;;;;;;;;;;103638;1304;24265;-81
2022/11/16 09:01:19;;;;;;;72.90;29.40;;;;;;;;;;103552;1304;24265;-86
2022/11/16 09:03:46;;;;;;;64.30;26.50;;;;;;;;;;103535;1307;25502;-82
2022/11/16 09:06:13;;;;;;;76.90;32.30;;;;;;;;;;103496;1307;22618;-81
2022/11/16 09:08:41;;;;;;;150.80;68.80;;;;;;;;;;103612;1307;22466;-87
2022/11/16 09:11:09;;;;;;;140.80;62.60;;;;;;;;;;103545;1307;22464;-88
2022/11/16 09:13:36;;;;;;;120.90;52.80;;;;;;;;;;103809;1304;22520;-81
2022/11/16 09:16:03;;;;;;;106.10;40.20;;;;;;;;;;103786;1304;25414;-85
2022/11/16 09:18:30;;;;;;;86.20;34.30;;;;;;;;;;103823;1304;22747;-81
2022/11/16 09:20:57;;;;;;;75.60;30.60;;;;;;;;;;103877;1304;25306;-81
2022/11/16 09:23:24;;;;;;;83.70;33.50;;;;;;;;;;103425;1307;25369;-85
2022/11/16 09:25:50;;;;;;;69.50;28.10;;;;;;;;;;103491;1306;22476;-81
2022/11/16 09:28:17;;;;;;;74.90;31.60;;;;;;;;;;103538;1301;22957;-84
2022/11/16 09:30:45;;;;;;;58.20;25.60;;;;;;;;;;103514;1306;22463;-84
2022/11/16 09:33:12;;;;;;;61.30;25.20;;;;;;;;;;103488;1306;22470;-81
2022/11/16 09:35:39;;;;;;;62.50;26.70;;;;;;;;;;103588;1304;22542;-86
2022/11/16 09:38:08;;;;;;;61.70;27.40;;;;;;;;;;103841;1296;24183;-83
2022/11/16 09:40:36;;;;;;;89.00;37.30;;;;;;;;;;103829;1304;23892;-82
2022/11/16 09:43:23;;;;;;;82.30;38.90;;;;;;;;;;103621;1306;23902;-88
2022/11/16 09:45:59;;;;;;;59.40;23.40;;;;;;;;;;103325;1306;25288;-86
2022/11/16 09:48:26;;;;;;;73.80;30.80;;;;;;;;;;103542;1306;22467;-82
2022/11/16 09:50:55;;;;;;;83.90;32.60;;;;;;;;;;103541;1306;22926;-82
2022/11/16 09:53:38;;;;;;;60.00;23.40;;;;;;;;;;103490;1307;22461;-83
2022/11/16 09:56:16;;;;;;;79.40;33.40;;;;;;;;;;103709;1305;23183;-85
2022/11/16 09:58:43;;;;;;;61.90;26.40;;;;;;;;;;103808;1304;22459;-86
2022/11/16 10:01:18;;;;;;;68.90;27.40;;;;;;;;;;103753;1304;25355;-85
2022/11/16 10:03:49;;;;;;;55.40;21.40;;;;;;;;;;103771;1304;22466;-83
2022/11/16 10:06:20;;;;;;;56.80;19.80;;;;;;;;;;103619;1283;23892;-83
2022/11/16 10:08:52;;;;;;;45.80;18.90;;;;;;;;;;103581;1307;25369;-84
2022/11/16 10:11:38;;;;;;;52.60;19.20;;;;;;;;;;103595;1307;22475;-86
2022/11/16 10:14:05;;;;;;;51.20;17.10;;;;;;;;;;103587;1305;25364;-82
2022/11/16 10:16:31;;;;;;;51.80;18.70;;;;;;;;;;103638;1304;22468;-83
2022/11/16 10:19:07;;;;;;;46.70;17.30;;;;;;;;;;103851;1304;25460;-84
2022/11/16 10:21:39;;;;;;;50.10;18.80;;;;;;;;;;103708;1304;26540;-84
2022/11/16 10:24:18;;;;;;;46.00;17.30;;;;;;;;;;103630;1304;22463;-81
2022/11/16 10:26:58;;;;;;;54.30;18.40;;;;;;;;;;103600;1307;22475;-83
2022/11/16 10:29:32;;;;;;;45.30;17.10;;;;;;;;;;103694;1307;22528;-85
2022/11/16 10:32:35;;;;;;;47.00;16.70;;;;;;;;;;103599;1307;25337;-85
2022/11/16 10:35:10;;;;;;;43.20;15.90;;;;;;;;;;103248;1310;25323;-82
2022/11/16 10:37:39;;;;;;;47.80;17.40;;;;;;;;;;103078;1310;23893;-83
2022/11/16 10:40:15;;;;;;;44.30;16.70;;;;;;;;;;103138;1310;25307;-83
2022/11/16 10:42:43;;;;;;;45.20;18.60;;;;;;;;;;103205;1310;22460;-84
2022/11/16 10:45:10;;;;;;;44.80;17.20;;;;;;;;;;102981;1311;22485;-84
2022/11/16 10:48:03;;;;;;;42.30;16.30;;;;;;;;;;103141;1310;22481;-83
2022/11/16 10:51:02;;;;;;;40.00;15.90;;;;;;;;;;103007;1310;22553;-82
2022/11/16 10:53:33;;;;;;;46.40;18.30;;;;;;;;;;102469;1318;25251;-84
2022/11/16 10:56:12;;;;;;;44.80;17.10;;;;;;;;;;102538;1317;22519;-83
2022/11/16 10:58:57;;;;;;;49.20;19.20;;;;;;;;;;102603;1317;24369;-82
2022/11/16 11:01:38;;;;;;;43.20;17.70;;;;;;;;;;102562;1317;22514;-84
2022/11/16 11:04:14;;;;;;;41.70;17.60;;;;;;;;;;102485;1317;25411;-86
2022/11/16 11:06:42;;;;;;;45.40;17.00;;;;;;;;;;102555;1318;25524;-87
2022/11/16 11:09:20;;;;;;;39.10;15.90;;;;;;;;;;102614;1313;23898;-84
2022/11/16 11:14:57;;;;;;;44.20;16.20;;;;;;;;;;102975;1312;22473;-84
2022/11/16 11:17:24;;;;;;;35.50;14.00;;;;;;;;;;102997;1312;22640;-82
2022/11/16 11:19:57;;;;;;;35.20;13.20;;;;;;;;;;102960;1311;25450;-82
2022/11/16 11:22:25;;;;;;;26.80;10.90;;;;;;;;;;103061;1311;24244;-84
2022/11/16 11:24:52;;;;;;;28.10;10.90;;;;;;;;;;103009;1312;22498;-82
2022/11/16 11:27:23;;;;;;;27.70;11.30;;;;;;;;;;103019;1312;25328;-85
2022/11/16 11:29:52;;;;;;;29.00;11.00;;;;;;;;;;103342;1304;22437;-81
2022/11/16 11:32:20;;;;;;;27.10;10.80;;;;;;;;;;103667;1304;24310;-82
2022/11/16 11:34:49;;;;;;;26.50;10.80;;;;;;;;;;103492;1304;24237;-83
2022/11/16 11:37:36;;;;;;;23.60;10.10;;;;;;;;;;103449;1307;22478;-82
2022/11/16 11:40:25;;;;;;;23.20;9.90;;;;;;;;;;103481;1292;25273;-83
2022/11/16 11:42:54;;;;;;;26.40;10.80;;;;;;;;;;103647;1275;24288;-82
2022/11/16 11:45:23;;;;;;;25.80;11.30;;;;;;;;;;103422;1306;22470;-82
2022/11/16 11:47:55;;;;;;;26.10;11.10;;;;;;;;;;103588;1306;22468;-82
2022/11/16 11:50:35;;;;;;;29.80;10.70;;;;;;;;;;103407;1307;23023;-85
2022/11/16 11:53:21;;;;;;;28.50;11.30;;;;;;;;;;103532;1305;22596;-87
2022/11/16 11:55:55;;;;;;;25.10;10.00;;;;;;;;;;103571;1307;23872;-81
2022/11/16 11:58:24;;;;;;;27.10;10.20;;;;;;;;;;103560;1306;25332;-84
2022/11/16 12:01:10;;;;;;;23.90;10.50;;;;;;;;;;103612;1292;22462;-84
2022/11/16 12:03:58;;;;;;;22.90;10.00;;;;;;;;;;103645;1292;22485;-80
2022/11/16 12:06:33;;;;;;;22.90;9.20;;;;;;;;;;103823;1306;22491;-80
2022/11/16 12:09:19;;;;;;;23.70;9.40;;;;;;;;;;103596;1281;24298;-81
2022/11/16 12:11:51;;;;;;;18.90;8.70;;;;;;;;;;103718;1282;22592;-82
2022/11/16 12:14:27;;;;;;;22.30;8.70;;;;;;;;;;103671;1282;22473;-80
2022/11/16 12:16:59;;;;;;;22.10;8.50;;;;;;;;;;103639;1275;23328;-81
2022/11/16 12:19:38;;;;;;;19.80;9.10;;;;;;;;;;103453;1290;22532;-86
2022/11/16 12:22:11;;;;;;;22.20;8.40;;;;;;;;;;103795;1289;24367;-84
2022/11/16 12:24:41;;;;;;;23.30;9.60;;;;;;;;;;103626;1297;25302;-82
2022/11/16 12:27:14;;;;;;;22.40;9.90;;;;;;;;;;103660;1292;24311;-81
2022/11/16 12:30:00;;;;;;;23.50;9.50;;;;;;;;;;103869;1283;22466;-82
2022/11/16 12:32:53;;;;;;;21.70;9.50;;;;;;;;;;103891;1298;23402;-81
2022/11/16 12:35:32;;;;;;;20.80;10.00;;;;;;;;;;103388;1287;23313;-83
2022/11/16 12:38:17;;;;;;;20.70;8.60;;;;;;;;;;103062;1310;23209;-81
2022/11/16 12:40:57;;;;;;;20.20;7.80;;;;;;;;;;103062;1310;23283;-83
2022/11/16 12:43:35;;;;;;;17.30;7.90;;;;;;;;;;103126;1294;22490;-82
2022/11/16 12:46:09;;;;;;;22.30;8.00;;;;;;;;;;103105;1302;24328;-81
2022/11/16 12:53:38;;;;;;;17.70;7.00;;;;;;;;;;100963;1318;544703;-80
2022/11/16 12:56:11;;;;;;;18.50;7.40;;;;;;;;;;102473;1302;25345;-81
2022/11/16 12:58:57;;;;;;;19.30;8.10;;;;;;;;;;102460;1302;22813;-85
2022/11/16 13:01:39;;;;;;;19.00;7.40;;;;;;;;;;102591;1295;22502;-82
2022/11/16 13:04:10;;;;;;;20.70;7.00;;;;;;;;;;102703;1316;23841;-83
2022/11/16 13:06:51;;;;;;;25.50;8.60;;;;;;;;;;101674;1313;1465967;-81
2022/11/16 13:09:24;;;;;;;24.50;8.50;;;;;;;;;;103395;1284;22636;-82
2022/11/16 13:11:53;;;;;;;25.40;9.30;;;;;;;;;;103335;1285;22507;-82
2022/11/16 13:14:38;;;;;;;24.90;9.70;;;;;;;;;;103626;1282;22465;-82
2022/11/16 13:17:05;;;;;;;26.20;9.40;;;;;;;;;;103589;1285;22467;-82
2022/11/16 13:19:37;;;;;;;26.30;8.60;;;;;;;;;;103474;1307;22484;-83
2022/11/16 13:22:09;;;;;;;30.70;10.20;;;;;;;;;;103469;1307;25728;-81
2022/11/16 13:24:52;;;;;;;31.60;11.70;;;;;;;;;;103384;1307;24415;-82
2022/11/16 13:27:34;;;;;;;33.10;12.80;;;;;;;;;;103356;1303;22477;-82
2022/11/16 13:30:15;;;;;;;27.80;11.30;;;;;;;;;;103464;1306;25757;-81
2022/11/16 13:32:42;;;;;;;24.30;9.60;;;;;;;;;;103411;1306;22486;-82
2022/11/16 13:35:16;;;;;;;21.20;9.20;;;;;;;;;;103433;1289;22473;-81
2022/11/16 13:37:45;;;;;;;22.30;8.50;;;;;;;;;;103502;1278;25276;-81
2022/11/16 13:40:33;;;;;;;22.00;8.80;;;;;;;;;;103449;1285;22623;-82
2022/11/16 13:43:02;;;;;;;27.70;9.80;;;;;;;;;;103518;1292;22473;-81
2022/11/16 13:45:49;;;;;;;20.90;8.70;;;;;;;;;;103270;1281;22468;-83
2022/11/16 13:48:21;;;;;;;19.80;7.30;;;;;;;;;;103493;1284;22488;-82
2022/11/16 13:50:49;;;;;;;20.00;7.80;;;;;;;;;;103550;1293;25310;-82
2022/11/16 13:53:45;;;;;;;19.70;7.10;;;;;;;;;;103443;1292;24231;-81
2022/11/16 13:56:14;;;;;;;22.60;8.60;;;;;;;;;;103323;1306;22445;-84
2022/11/16 13:58:46;;;;;;;20.50;8.30;;;;;;;;;;103357;1284;23057;-82
2022/11/16 14:01:14;;;;;;;21.80;8.30;;;;;;;;;;103353;1300;24392;-82
2022/11/16 14:03:41;;;;;;;22.20;8.70;;;;;;;;;;103237;1306;22476;-82
2022/11/16 14:06:21;;;;;;;25.10;9.40;;;;;;;;;;103549;1299;25843;-81
2022/11/16 14:08:50;;;;;;;26.10;9.50;;;;;;;;;;103529;1307;23885;-81
2022/11/16 14:11:29;;;;;;;28.80;9.20;;;;;;;;;;103523;1306;22527;-81
2022/11/16 14:13:57;;;;;;;23.50;9.20;;;;;;;;;;103457;1306;25209;-81
2022/11/16 14:16:28;;;;;;;26.10;8.70;;;;;;;;;;103555;1306;23845;-83
2022/11/16 14:19:01;;;;;;;21.80;9.40;;;;;;;;;;103161;1306;23696;-81
2022/11/16 14:21:38;;;;;;;24.50;9.00;;;;;;;;;;103387;1306;24238;-82
2022/11/16 14:24:23;;;;;;;16.60;7.10;;;;;;;;;;103361;1306;22483;-82
2022/11/16 14:27:02;;;;;;;31.60;13.10;;;;;;;;;;103624;1307;22549;-82
2022/11/16 14:29:30;;;;;;;32.90;13.20;;;;;;;;;;103707;1283;22943;-81
2022/11/16 14:31:58;;;;;;;23.60;10.60;;;;;;;;;;103422;1292;22858;-81
2022/11/16 14:34:33;;;;;;;23.30;9.90;;;;;;;;;;103460;1292;22468;-82
2022/11/16 14:37:00;;;;;;;25.30;10.50;;;;;;;;;;103700;1306;22469;-81
2022/11/16 14:39:42;;;;;;;23.90;10.90;;;;;;;;;;103411;1306;24282;-81
2022/11/16 14:42:16;;;;;;;29.90;12.00;;;;;;;;;;103451;1306;22501;-82
2022/11/16 14:44:44;;;;;;;26.90;11.50;;;;;;;;;;103369;1306;22487;-85
2022/11/16 14:47:30;;;;;;;27.60;11.80;;;;;;;;;;103394;1300;21665;-86
2022/11/16 14:49:57;;;;;;;32.20;13.60;;;;;;;;;;103562;1307;24234;-79
2022/11/16 14:52:29;;;;;;;35.30;14.20;;;;;;;;;;104093;1306;24247;-80
2022/11/16 14:55:01;;;;;;;34.80;15.30;;;;;;;;;;103890;1307;22471;-81
2022/11/16 14:57:28;;;;;;;39.40;16.80;;;;;;;;;;103509;1306;22489;-85
2022/11/16 15:00:31;;;;;;;47.40;18.30;;;;;;;;;;103305;1306;22470;-83
2022/11/16 15:02:57;;;;;;;35.00;14.80;;;;;;;;;;102905;1314;22477;-81
2022/11/16 15:05:28;;;;;;;28.20;13.30;;;;;;;;;;102818;1315;22602;-80
2022/11/16 15:07:57;;;;;;;27.60;10.70;;;;;;;;;;102931;1312;25364;-82
2022/11/16 15:10:26;;;;;;;30.60;13.10;;;;;;;;;;102906;1313;22616;-84
2022/11/16 15:12:54;;;;;;;24.40;10.30;;;;;;;;;;103113;1312;22438;-86
2022/11/16 15:15:22;;;;;;;32.80;12.90;;;;;;;;;;102946;1313;25404;-82
2022/11/16 15:17:58;;;;;;;33.80;13.60;;;;;;;;;;102863;1315;22540;-84
2022/11/16 15:20:27;;;;;;;30.70;12.90;;;;;;;;;;102880;1313;23035;-83
2022/11/16 15:22:55;;;;;;;35.10;13.00;;;;;;;;;;102860;1308;22470;-87